Time;durP1;ratioP1;P1;durP2;ratioP2;P2;SDS_P1;SDS_P2;PMS_P1;PMS_P2;Temp;Humidity;BMP_temperature;BMP_pressure;BME280_temperature;BME280_humidity;BME280_pressure;Samples;Min_cycle;Max_cycle;Signal;HPM_P1;HPM_P2
2021/01/24 00:00:11;;;;;;;2.35;1.40;;;3.20;90.90;;;;;;5117433;28;20070;-76
2021/01/24 00:02:36;;;;;;;2.20;1.33;;;3.20;90.90;;;;;;5139183;28;20043;-75
2021/01/24 00:05:03;;;;;;;3.88;1.92;;;3.20;90.90;;;;;;5139949;27;20105;-75
2021/01/24 00:07:29;;;;;;;3.65;1.80;;;3.20;90.90;;;;;;5137202;28;20039;-76
2021/01/24 00:09:55;;;;;;;3.38;1.75;;;3.20;90.90;;;;;;5135432;28;20056;-76
2021/01/24 00:12:21;;;;;;;2.83;1.60;;;3.20;90.90;;;;;;5134692;28;20235;-76
2021/01/24 00:14:46;;;;;;;2.97;1.70;;;3.20;90.90;;;;;;5134670;28;20180;-76
2021/01/24 00:17:12;;;;;;;2.92;1.38;;;3.20;90.90;;;;;;5116157;28;20447;-76
2021/01/24 00:19:38;;;;;;;3.17;1.70;;;3.20;90.90;;;;;;5134390;28;20043;-76
2021/01/24 00:22:04;;;;;;;3.33;1.60;;;3.30;90.90;;;;;;5134483;28;20478;-76
2021/01/24 00:24:29;;;;;;;2.83;1.60;;;3.20;90.90;;;;;;5134548;28;20043;-76
2021/01/24 00:26:55;;;;;;;3.28;1.58;;;3.30;90.90;;;;;;5115375;28;20558;-76
2021/01/24 00:29:21;;;;;;;3.05;1.50;;;3.20;90.90;;;;;;5134331;28;20410;-76
2021/01/24 00:31:47;;;;;;;2.78;1.55;;;3.20;90.90;;;;;;5134728;28;20050;-76
2021/01/24 00:34:12;;;;;;;3.45;1.80;;;3.20;90.90;;;;;;5134396;28;20047;-76
2021/01/24 00:36:38;;;;;;;3.53;1.73;;;3.20;90.90;;;;;;5134518;28;20445;-76
2021/01/24 00:39:05;;;;;;;2.38;1.58;;;3.20;90.90;;;;;;5134438;28;20035;-76
2021/01/24 00:41:32;;;;;;;2.60;1.40;;;3.20;90.90;;;;;;5133649;28;20562;-76
2021/01/24 00:43:57;;;;;;;2.35;1.30;;;3.20;90.90;;;;;;5114852;28;20075;-76
2021/01/24 00:46:23;;;;;;;5.07;2.50;;;3.20;91.00;;;;;;5133686;28;20064;-76
2021/01/24 00:48:49;;;;;;;4.10;2.08;;;3.20;91.00;;;;;;5133677;28;20375;-76
2021/01/24 00:51:15;;;;;;;4.72;2.10;;;3.10;90.90;;;;;;5133856;28;20586;-76
2021/01/24 00:53:40;;;;;;;3.67;2.13;;;3.10;90.90;;;;;;5133855;28;20039;-76
2021/01/24 00:56:06;;;;;;;3.03;1.63;;;3.10;90.90;;;;;;5133406;28;20490;-76
2021/01/24 00:58:32;;;;;;;4.22;2.25;;;3.00;90.90;;;;;;5115161;28;20114;-76
2021/01/24 01:00:58;;;;;;;3.00;1.65;;;3.00;91.00;;;;;;5133244;28;20134;-76
2021/01/24 01:03:24;;;;;;;3.45;1.55;;;3.00;91.00;;;;;;5133831;28;20531;-76
2021/01/24 01:05:49;;;;;;;3.97;2.10;;;3.00;91.00;;;;;;5133286;28;20069;-76
2021/01/24 01:08:15;;;;;;;4.18;1.80;;;3.10;91.00;;;;;;5133335;28;20067;-76
2021/01/24 01:10:42;;;;;;;5.95;2.85;;;3.00;91.00;;;;;;5133236;28;20083;-76
2021/01/24 01:13:07;;;;;;;3.28;1.63;;;3.00;91.00;;;;;;5133249;28;20118;-76
2021/01/24 01:15:33;;;;;;;3.75;1.90;;;3.10;91.00;;;;;;5115014;27;20073;-76
2021/01/24 01:17:59;;;;;;;2.47;1.38;;;2.90;91.00;;;;;;5097654;28;20035;-76
2021/01/24 01:20:25;;;;;;;3.53;1.60;;;2.90;91.00;;;;;;5133048;28;20047;-76
2021/01/24 01:22:51;;;;;;;2.45;1.50;;;2.90;91.00;;;;;;5133234;28;20062;-76
2021/01/24 01:25:17;;;;;;;4.63;1.73;;;3.00;91.30;;;;;;5133829;28;20035;-76
2021/01/24 01:27:43;;;;;;;4.00;1.83;;;2.90;91.00;;;;;;5133565;28;20031;-76
2021/01/24 01:30:09;;;;;;;3.25;1.80;;;2.90;91.00;;;;;;5133970;28;20054;-76
2021/01/24 01:32:35;;;;;;;2.20;1.27;;;2.80;91.00;;;;;;5133603;28;20050;-76
2021/01/24 01:35:03;;;;;;;1.67;1.08;;;2.90;91.00;;;;;;5133457;28;20492;-76
2021/01/24 01:37:29;;;;;;;2.95;1.40;;;2.90;91.00;;;;;;5133102;28;20043;-76
2021/01/24 01:39:55;;;;;;;2.67;1.20;;;2.90;91.00;;;;;;5115052;28;20604;-76
2021/01/24 01:42:21;;;;;;;1.92;1.00;;;2.90;91.00;;;;;;5133369;28;20130;-76
2021/01/24 01:44:47;;;;;;;1.83;0.85;;;2.80;91.00;;;;;;5115121;28;20039;-76
2021/01/24 01:47:19;;;;;;;1.60;0.90;;;2.90;91.10;;;;;;5133486;28;20043;-76
2021/01/24 01:49:45;;;;;;;3.30;1.73;;;2.90;91.10;;;;;;5133019;28;20490;-76
2021/01/24 01:52:11;;;;;;;1.58;1.17;;;2.90;91.00;;;;;;5132985;28;20050;-76
2021/01/24 01:54:37;;;;;;;2.33;1.13;;;2.90;91.00;;;;;;5114413;28;20035;-76
2021/01/24 01:57:02;;;;;;;2.65;1.40;;;2.80;91.00;;;;;;5114645;28;20046;-76
2021/01/24 01:59:28;;;;;;;4.18;2.15;;;2.80;91.00;;;;;;5133288;28;20054;-76
2021/01/24 02:02:05;;;;;;;3.20;1.52;;;2.80;91.00;;;;;;5133191;28;20550;-76
2021/01/24 02:04:42;;;;;;;3.30;1.60;;;2.80;91.00;;;;;;5133412;28;20046;-76
2021/01/24 02:07:29;;;;;;;3.00;1.30;;;2.80;91.00;;;;;;5114476;28;20039;-76
2021/01/24 02:10:03;;;;;;;2.47;1.40;;;2.80;91.00;;;;;;5128804;28;20463;-76
2021/01/24 02:12:48;;;;;;;2.90;1.25;;;2.80;91.00;;;;;;5114289;28;20051;-76
2021/01/24 02:15:18;;;;;;;4.93;1.90;;;2.80;91.00;;;;;;5133093;28;20398;-76
2021/01/24 02:17:50;;;;;;;4.22;2.08;;;2.80;91.00;;;;;;5133385;28;20035;-76
2021/01/24 02:20:25;;;;;;;4.90;2.00;;;2.80;91.20;;;;;;5133412;28;20035;-75
2021/01/24 02:22:53;;;;;;;2.58;1.58;;;2.80;91.00;;;;;;5136531;28;20074;-76
2021/01/24 02:25:37;;;;;;;4.28;1.73;;;2.70;91.00;;;;;;5132763;28;20095;-76
2021/01/24 02:28:31;;;;;;;2.22;1.30;;;2.70;91.00;;;;;;5116094;28;20063;-76
2021/01/24 02:30:58;;;;;;;2.72;1.30;;;2.70;91.00;;;;;;5136228;28;20118;-76
2021/01/24 02:33:27;;;;;;;2.33;1.17;;;2.70;91.00;;;;;;5136081;28;20050;-76
2021/01/24 02:35:58;;;;;;;1.88;0.98;;;2.70;91.00;;;;;;5118752;28;20039;-76
2021/01/24 02:38:26;;;;;;;1.27;0.90;;;2.70;91.10;;;;;;5118270;28;20091;-76
2021/01/24 02:40:53;;;;;;;1.60;0.75;;;2.70;91.10;;;;;;5101280;28;20324;-76
2021/01/24 02:43:20;;;;;;;1.17;0.60;;;2.80;91.10;;;;;;5137186;28;20035;-76
2021/01/24 02:45:49;;;;;;;1.00;0.63;;;2.70;91.10;;;;;;5136892;28;20039;-76
2021/01/24 02:48:17;;;;;;;1.08;0.70;;;2.70;91.10;;;;;;5136979;28;20168;-76
2021/01/24 02:50:45;;;;;;;1.08;0.70;;;2.70;91.10;;;;;;5136778;28;20043;-76
2021/01/24 02:53:12;;;;;;;1.08;0.70;;;2.70;91.20;;;;;;5137278;28;20143;-75
2021/01/24 02:55:38;;;;;;;0.90;0.60;;;2.70;91.20;;;;;;5136935;28;20067;-76
2021/01/24 02:58:04;;;;;;;0.93;0.50;;;2.70;91.20;;;;;;5116665;28;20423;-76
2021/01/24 03:00:30;;;;;;;1.33;0.77;;;2.60;91.20;;;;;;5136370;28;20038;-76
2021/01/24 03:02:56;;;;;;;0.50;0.43;;;2.70;91.20;;;;;;5136159;28;20043;-76
2021/01/24 03:05:23;;;;;;;0.57;0.35;;;2.80;91.20;;;;;;5136163;28;20057;-75
2021/01/24 03:07:49;;;;;;;0.77;0.55;;;2.80;91.20;;;;;;5135882;28;20043;-76
2021/01/24 03:10:16;;;;;;;0.68;0.40;;;2.70;91.20;;;;;;5135724;28;20043;-75
2021/01/24 03:13:02;;;;;;;0.50;0.30;;;2.80;91.30;;;;;;5117647;28;20043;-75
2021/01/24 03:15:30;;;;;;;1.17;0.40;;;2.70;91.30;;;;;;5135414;28;20062;-75
2021/01/24 03:17:57;;;;;;;0.32;0.20;;;2.70;91.30;;;;;;5135504;28;20126;-75
2021/01/24 03:20:24;;;;;;;0.25;0.25;;;2.80;91.30;;;;;;5135452;28;20410;-76
2021/01/24 03:22:52;;;;;;;0.30;0.30;;;2.80;91.30;;;;;;5135471;28;20039;-75
2021/01/24 03:25:18;;;;;;;0.88;0.52;;;2.80;91.30;;;;;;5117069;28;20062;-75
2021/01/24 03:27:44;;;;;;;0.93;0.57;;;2.80;91.30;;;;;;5135096;28;20043;-75
2021/01/24 03:30:12;;;;;;;0.50;0.32;;;2.80;91.30;;;;;;5116373;28;20047;-76
2021/01/24 03:32:38;;;;;;;1.02;0.50;;;2.80;91.30;;;;;;5135590;28;20043;-76
2021/01/24 03:35:05;;;;;;;1.13;0.52;;;2.80;91.30;;;;;;5135587;28;20047;-75
2021/01/24 03:37:30;;;;;;;0.85;0.68;;;2.90;91.60;;;;;;5134995;28;20398;-76
2021/01/24 03:39:56;;;;;;;0.60;0.50;;;2.90;91.30;;;;;;5135410;27;20127;-76
2021/01/24 03:42:22;;;;;;;0.70;0.40;;;2.80;91.30;;;;;;5135031;28;20039;-75
2021/01/24 03:44:48;;;;;;;1.38;0.65;;;2.90;91.30;;;;;;5116935;28;20031;-76
2021/01/24 03:47:15;;;;;;;0.47;0.43;;;2.90;91.30;;;;;;5135389;28;20043;-76
2021/01/24 03:49:41;;;;;;;0.50;0.47;;;2.90;91.30;;;;;;5134979;28;20074;-75
2021/01/24 03:52:07;;;;;;;1.33;0.70;;;2.80;91.30;;;;;;5134876;28;20067;-76
2021/01/24 03:54:32;;;;;;;1.08;0.70;;;2.90;91.30;;;;;;5116671;28;20039;-76
2021/01/24 03:56:58;;;;;;;0.73;0.47;;;2.80;91.30;;;;;;5135112;28;20031;-76
2021/01/24 03:59:24;;;;;;;1.38;0.80;;;2.90;91.40;;;;;;5134701;28;20054;-75
2021/01/24 04:01:50;;;;;;;1.10;0.50;;;2.90;91.40;;;;;;5134578;28;20047;-76
2021/01/24 04:04:16;;;;;;;1.02;0.73;;;2.80;91.30;;;;;;5134649;28;20043;-76
2021/01/24 04:06:41;;;;;;;0.60;0.60;;;2.80;91.30;;;;;;5134421;28;20398;-76
2021/01/24 04:09:07;;;;;;;1.02;0.60;;;2.90;91.40;;;;;;5134748;28;20043;-75
2021/01/24 04:11:33;;;;;;;0.88;0.70;;;2.80;91.30;;;;;;5134820;28;20131;-76
2021/01/24 04:13:59;;;;;;;0.70;0.50;;;2.90;91.40;;;;;;5134516;28;20039;-76
2021/01/24 04:16:24;;;;;;;1.30;0.63;;;2.90;91.40;;;;;;5116225;28;20047;-76
2021/01/24 04:18:50;;;;;;;1.67;0.75;;;2.80;91.40;;;;;;5116130;28;20043;-75
2021/01/24 04:21:16;;;;;;;1.83;0.82;;;2.90;91.40;;;;;;5134788;28;20050;-75
2021/01/24 04:23:42;;;;;;;1.20;0.80;;;2.80;91.40;;;;;;5134912;28;20147;-75
2021/01/24 04:26:08;;;;;;;1.70;0.77;;;2.80;91.40;;;;;;5137998;28;20031;-75
2021/01/24 04:28:33;;;;;;;1.70;0.75;;;2.80;91.40;;;;;;5134920;28;20115;-75
2021/01/24 04:30:59;;;;;;;1.17;0.73;;;2.80;91.40;;;;;;5134164;28;20043;-76
2021/01/24 04:33:25;;;;;;;3.05;1.20;;;2.90;91.40;;;;;;5134184;28;20035;-76
2021/01/24 04:35:50;;;;;;;1.60;0.88;;;2.80;91.40;;;;;;5134229;28;20035;-76
2021/01/24 04:38:16;;;;;;;1.95;0.98;;;2.80;91.40;;;;;;5116009;28;20039;-76
2021/01/24 04:40:42;;;;;;;1.60;0.98;;;2.80;91.40;;;;;;5134343;28;20039;-76
2021/01/24 04:43:08;;;;;;;2.17;1.33;;;2.80;91.40;;;;;;5133836;28;20045;-76
2021/01/24 04:45:34;;;;;;;1.75;1.00;;;2.90;91.40;;;;;;5133722;28;20083;-76
2021/01/24 04:48:00;;;;;;;3.55;1.33;;;2.90;91.40;;;;;;5133654;28;20039;-76
2021/01/24 04:50:27;;;;;;;2.20;1.02;;;2.80;91.40;;;;;;5113085;28;20036;-76
2021/01/24 04:52:53;;;;;;;1.20;0.88;;;2.90;91.40;;;;;;5133664;28;20486;-76
2021/01/24 04:55:19;;;;;;;1.70;0.80;;;2.90;91.40;;;;;;5134246;28;20075;-75
2021/01/24 04:57:46;;;;;;;3.67;1.10;;;2.80;91.40;;;;;;5134115;28;20067;-76
2021/01/24 05:00:12;;;;;;;1.30;0.80;;;2.80;91.40;;;;;;5115472;28;20043;-76
2021/01/24 05:02:39;;;;;;;1.35;0.90;;;2.80;91.40;;;;;;5134312;28;20043;-76
2021/01/24 05:05:05;;;;;;;0.95;0.60;;;2.80;91.40;;;;;;5133887;28;20027;-76
2021/01/24 05:07:31;;;;;;;2.90;1.08;;;2.80;91.40;;;;;;5133930;28;20039;-75
2021/01/24 05:09:58;;;;;;;1.50;0.80;;;2.80;91.40;;;;;;5133916;28;20050;-76
2021/01/24 05:12:24;;;;;;;1.05;0.73;;;2.80;91.40;;;;;;5115354;28;20082;-75
2021/01/24 05:14:50;;;;;;;1.55;0.93;;;2.80;91.40;;;;;;5134150;28;20181;-76
2021/01/24 05:17:16;;;;;;;2.28;1.15;;;2.80;91.40;;;;;;5115610;28;20043;-75
2021/01/24 05:19:43;;;;;;;1.98;1.10;;;2.80;91.40;;;;;;5133940;28;20043;-76
2021/01/24 05:22:10;;;;;;;2.13;0.95;;;2.80;91.40;;;;;;5133593;28;20043;-76
2021/01/24 05:24:36;;;;;;;1.88;0.95;;;2.80;91.40;;;;;;5133905;28;20042;-76
2021/01/24 05:27:11;;;;;;;1.05;0.70;;;2.80;91.40;;;;;;5133914;28;20045;-76
2021/01/24 05:29:40;;;;;;;1.17;0.75;;;2.80;91.40;;;;;;5133729;28;20465;-76
2021/01/24 05:32:06;;;;;;;3.08;1.30;;;2.80;91.40;;;;;;5133767;28;20059;-75
2021/01/24 05:34:32;;;;;;;1.63;0.88;;;2.80;91.40;;;;;;5133556;28;20039;-76
2021/01/24 05:37:00;;;;;;;1.67;0.90;;;2.80;91.50;;;;;;5098468;28;20398;-75
2021/01/24 05:39:28;;;;;;;3.05;1.40;;;2.70;91.40;;;;;;5115215;28;20055;-75
2021/01/24 05:41:55;;;;;;;1.42;0.90;;;2.80;91.50;;;;;;5133671;28;20112;-75
2021/01/24 05:44:22;;;;;;;2.25;1.08;;;2.70;91.40;;;;;;5133346;28;20046;-75
2021/01/24 05:46:49;;;;;;;2.10;1.20;;;2.70;91.40;;;;;;5133551;28;20042;-76
2021/01/24 05:49:23;;;;;;;2.10;1.13;;;2.80;91.50;;;;;;5133359;28;20046;-75
2021/01/24 05:52:01;;;;;;;1.75;0.90;;;2.70;91.40;;;;;;5133264;28;20433;-75
2021/01/24 05:54:40;;;;;;;1.35;0.80;;;2.70;91.50;;;;;;5133238;28;20411;-75
2021/01/24 05:57:07;;;;;;;1.83;1.00;;;2.70;91.50;;;;;;5133784;28;20379;-75
2021/01/24 05:59:49;;;;;;;1.40;0.90;;;2.70;91.40;;;;;;5133219;28;20046;-76
2021/01/24 06:02:17;;;;;;;1.65;0.77;;;2.70;91.50;;;;;;5133593;27;20043;-75
2021/01/24 06:04:44;;;;;;;1.08;0.60;;;2.70;91.40;;;;;;5136294;28;20498;-75
2021/01/24 06:07:10;;;;;;;1.42;0.70;;;2.70;91.40;;;;;;5118459;28;20035;-75
2021/01/24 06:09:36;;;;;;;1.25;0.75;;;2.70;91.40;;;;;;5136605;28;20528;-75
2021/01/24 06:12:03;;;;;;;1.48;0.80;;;2.60;91.40;;;;;;5136591;28;20046;-75
2021/01/24 06:14:33;;;;;;;0.95;0.68;;;2.70;91.40;;;;;;5101280;28;20402;-76
2021/01/24 06:17:03;;;;;;;1.20;0.70;;;2.70;91.40;;;;;;5136703;28;20083;-75
2021/01/24 06:19:39;;;;;;;1.77;0.77;;;2.70;91.40;;;;;;5118046;28;20444;-76
2021/01/24 06:22:11;;;;;;;1.35;0.63;;;2.60;91.40;;;;;;5136821;28;20088;-76
2021/01/24 06:24:43;;;;;;;1.15;0.47;;;2.60;91.40;;;;;;5136716;28;20027;-75
2021/01/24 06:27:10;;;;;;;1.08;0.70;;;2.60;91.50;;;;;;5138204;28;20077;-76
2021/01/24 06:29:40;;;;;;;0.95;0.60;;;2.60;91.50;;;;;;5136509;28;20039;-76
2021/01/24 06:32:06;;;;;;;1.30;0.60;;;2.60;91.50;;;;;;5116231;28;20035;-75
2021/01/24 06:34:37;;;;;;;1.58;0.60;;;2.60;91.60;;;;;;5118074;28;20508;-75
2021/01/24 06:37:05;;;;;;;0.73;0.40;;;2.50;91.60;;;;;;5136805;28;20039;-75
2021/01/24 06:39:40;;;;;;;0.50;0.32;;;2.60;91.60;;;;;;5136653;28;20487;-75
2021/01/24 06:42:06;;;;;;;0.68;0.60;;;2.50;91.60;;;;;;5136263;28;20047;-76
2021/01/24 06:44:35;;;;;;;1.38;0.63;;;2.50;91.60;;;;;;5136192;28;20486;-76
2021/01/24 06:47:06;;;;;;;0.57;0.47;;;2.50;91.70;;;;;;5136654;28;20040;-75
2021/01/24 06:49:45;;;;;;;0.73;0.50;;;2.60;91.70;;;;;;5117107;28;20451;-76
2021/01/24 06:52:18;;;;;;;1.15;0.55;;;2.40;91.70;;;;;;5136588;28;20039;-76
2021/01/24 06:54:43;;;;;;;1.20;0.57;;;2.50;91.70;;;;;;5136103;28;20039;-75
2021/01/24 06:57:10;;;;;;;1.52;0.80;;;2.50;91.70;;;;;;5136178;28;20474;-76
2021/01/24 06:59:36;;;;;;;1.90;0.80;;;2.50;91.60;;;;;;5135838;28;20031;-75
2021/01/24 07:02:20;;;;;;;1.23;0.70;;;2.60;91.60;;;;;;5136268;28;20467;-75
2021/01/24 07:05:22;;;;;;;1.02;0.65;;;2.60;91.60;;;;;;5136317;28;20116;-76
2021/01/24 07:07:49;;;;;;;0.95;0.50;;;2.60;91.60;;;;;;5135846;28;20027;-76
2021/01/24 07:10:42;;;;;;;1.10;0.52;;;2.50;91.60;;;;;;5117947;28;20481;-76
2021/01/24 07:13:31;;;;;;;0.98;0.60;;;2.50;91.60;;;;;;5136219;28;20048;-76
2021/01/24 07:16:07;;;;;;;1.10;0.60;;;2.50;91.60;;;;;;5136052;28;20580;-76
2021/01/24 07:18:42;;;;;;;0.52;0.50;;;2.50;91.50;;;;;;5117011;28;20043;-76
2021/01/24 07:21:10;;;;;;;0.38;0.32;;;2.60;91.60;;;;;;5116996;28;20035;-76
2021/01/24 07:23:39;;;;;;;0.68;0.45;;;2.50;91.50;;;;;;5135400;28;20042;-76
2021/01/24 07:26:06;;;;;;;1.08;0.60;;;2.50;91.50;;;;;;5100190;28;21082;-75
2021/01/24 07:28:33;;;;;;;1.00;0.50;;;2.50;91.50;;;;;;5117031;28;20397;-76
2021/01/24 07:31:01;;;;;;;1.23;0.43;;;2.50;91.60;;;;;;5135556;28;20063;-76
2021/01/24 07:33:30;;;;;;;0.77;0.40;;;2.50;91.60;;;;;;5135321;28;20545;-76
2021/01/24 07:35:59;;;;;;;0.47;0.35;;;2.40;91.60;;;;;;5117100;28;20130;-76
2021/01/24 07:38:26;;;;;;;1.13;0.50;;;2.40;91.70;;;;;;5116646;28;20547;-75
2021/01/24 07:40:55;;;;;;;0.70;0.52;;;2.30;91.70;;;;;;5116955;28;20062;-76
2021/01/24 07:43:21;;;;;;;1.00;0.63;;;2.50;91.70;;;;;;5116398;28;20040;-76
2021/01/24 07:45:47;;;;;;;1.23;0.55;;;2.30;91.70;;;;;;5134904;28;20091;-76
2021/01/24 07:48:14;;;;;;;1.00;0.40;;;2.30;91.70;;;;;;5134936;28;20040;-76
2021/01/24 07:50:40;;;;;;;0.90;0.60;;;2.30;91.80;;;;;;5135244;28;20035;-75
2021/01/24 07:53:08;;;;;;;0.65;0.40;;;2.30;91.80;;;;;;5134928;28;20047;-78
2021/01/24 07:55:36;;;;;;;0.90;0.70;;;2.20;91.80;;;;;;5116341;28;20091;-76
2021/01/24 07:58:02;;;;;;;1.15;0.70;;;2.30;91.80;;;;;;5134774;28;20043;-76
2021/01/24 08:00:28;;;;;;;0.68;0.50;;;2.20;91.80;;;;;;5134907;28;20046;-76
2021/01/24 08:02:54;;;;;;;1.00;0.60;;;2.20;91.80;;;;;;5116002;28;20039;-76
2021/01/24 08:05:22;;;;;;;0.60;0.43;;;2.30;91.80;;;;;;5135918;28;20425;-76
2021/01/24 08:07:49;;;;;;;0.98;0.70;;;2.20;91.80;;;;;;5139346;28;20044;-76
2021/01/24 08:10:15;;;;;;;1.52;0.75;;;2.20;91.80;;;;;;5134641;28;20073;-77
2021/01/24 08:12:41;;;;;;;1.27;0.80;;;2.20;91.80;;;;;;5115903;28;20506;-77
2021/01/24 08:15:07;;;;;;;1.02;0.75;;;2.10;91.80;;;;;;5134621;28;20062;-77
2021/01/24 08:17:34;;;;;;;1.73;0.95;;;2.10;91.80;;;;;;5134724;28;20097;-77
2021/01/24 08:20:01;;;;;;;1.25;0.88;;;2.20;91.80;;;;;;5133996;28;20370;-77
2021/01/24 08:22:27;;;;;;;2.03;0.80;;;2.10;91.80;;;;;;5134081;28;20043;-77
2021/01/24 08:24:55;;;;;;;1.52;0.70;;;2.10;91.80;;;;;;5134128;27;20562;-77
2021/01/24 08:27:20;;;;;;;1.67;0.82;;;2.10;91.80;;;;;;5133188;28;20543;-77
2021/01/24 08:29:46;;;;;;;1.52;0.80;;;2.10;91.70;;;;;;5134126;28;20039;-77
2021/01/24 08:32:15;;;;;;;0.98;0.77;;;2.10;91.70;;;;;;5134104;28;20047;-77
2021/01/24 08:34:41;;;;;;;1.48;0.70;;;2.00;91.70;;;;;;5097927;28;20472;-76
2021/01/24 08:37:08;;;;;;;1.27;0.63;;;2.00;91.70;;;;;;5134731;28;20044;-76
2021/01/24 08:39:34;;;;;;;1.83;0.80;;;2.00;91.80;;;;;;5134947;28;20045;-76
2021/01/24 08:42:04;;;;;;;0.90;0.55;;;2.10;91.80;;;;;;5134313;28;20046;-76
2021/01/24 08:44:30;;;;;;;0.80;0.40;;;2.00;91.80;;;;;;5134110;28;20036;-76
2021/01/24 08:47:03;;;;;;;1.13;0.60;;;2.00;91.80;;;;;;5134473;28;20039;-77
2021/01/24 08:49:30;;;;;;;0.70;0.40;;;2.00;91.80;;;;;;5134346;28;20027;-73
2021/01/24 08:51:58;;;;;;;0.40;0.40;;;2.00;91.80;;;;;;5134201;28;20102;-74
2021/01/24 08:54:28;;;;;;;1.02;0.55;;;2.00;91.80;;;;;;5134466;28;20053;-74
2021/01/24 08:57:07;;;;;;;0.80;0.60;;;2.00;91.80;;;;;;5134437;28;20118;-76
2021/01/24 08:59:34;;;;;;;0.75;0.40;;;2.10;91.80;;;;;;5135298;28;20046;-77
2021/01/24 09:02:00;;;;;;;0.50;0.40;;;2.10;91.70;;;;;;5114979;28;20051;-77
2021/01/24 09:04:28;;;;;;;0.40;0.40;;;2.00;91.70;;;;;;5115543;28;20096;-78
2021/01/24 09:07:05;;;;;;;0.50;0.40;;;2.10;91.70;;;;;;5147301;28;20039;-79
2021/01/24 09:09:31;;;;;;;0.57;0.30;;;2.10;91.70;;;;;;5098033;28;20043;-78
2021/01/24 09:11:58;;;;;;;0.40;0.38;;;2.10;91.70;;;;;;5115728;28;20414;-78
2021/01/24 09:14:24;;;;;;;0.35;0.30;;;2.10;91.60;;;;;;5116583;28;20035;-77
2021/01/24 09:17:00;;;;;;;1.00;0.47;;;2.10;91.70;;;;;;5134720;28;20072;-77
2021/01/24 09:19:26;;;;;;;0.40;0.40;;;2.00;91.70;;;;;;5115692;28;20035;-78
2021/01/24 09:21:52;;;;;;;1.67;0.50;;;2.10;91.70;;;;;;5099715;28;20047;-78
2021/01/24 09:24:18;;;;;;;0.43;0.40;;;2.00;91.70;;;;;;5134711;28;20039;-78
2021/01/24 09:26:46;;;;;;;0.30;0.30;;;2.10;91.70;;;;;;5097902;28;20040;-78
2021/01/24 09:29:13;;;;;;;0.52;0.40;;;2.10;91.70;;;;;;5116943;28;20084;-78
2021/01/24 09:31:39;;;;;;;0.40;0.32;;;2.20;91.70;;;;;;5118735;28;20081;-77
2021/01/24 09:34:05;;;;;;;1.38;0.68;;;2.20;91.60;;;;;;5117388;28;20043;-78
2021/01/24 09:36:30;;;;;;;1.35;0.50;;;2.20;91.60;;;;;;5134093;27;20039;-78
2021/01/24 09:38:56;;;;;;;1.10;0.52;;;2.20;91.60;;;;;;5134955;28;20071;-78
2021/01/24 09:41:22;;;;;;;0.95;0.52;;;2.30;91.60;;;;;;5134185;28;20501;-78
2021/01/24 09:43:48;;;;;;;0.90;0.50;;;2.30;91.50;;;;;;5133617;28;20138;-78
2021/01/24 09:46:13;;;;;;;0.40;0.30;;;2.30;91.50;;;;;;5133739;28;20065;-78
2021/01/24 09:48:39;;;;;;;1.08;0.30;;;2.40;91.50;;;;;;5096451;28;20113;-78
2021/01/24 09:51:08;;;;;;;1.17;0.40;;;2.40;91.50;;;;;;5134802;28;20050;-78
2021/01/24 09:53:36;;;;;;;0.32;0.30;;;2.40;91.50;;;;;;5117293;28;20043;-78
2021/01/24 09:56:47;;;;;;;0.70;0.50;;;2.50;91.50;;;;;;5133865;28;20478;-83
2021/01/24 09:59:36;;;;;;;0.73;0.40;;;2.60;91.50;;;;;;5122128;28;20047;-82
2021/01/24 10:02:01;;;;;;;0.40;0.32;;;2.60;91.40;;;;;;5069748;28;20048;-74
2021/01/24 10:04:27;;;;;;;0.90;0.60;;;2.70;91.40;;;;;;5052142;28;20044;-74
2021/01/24 10:06:53;;;;;;;0.47;0.32;;;2.70;91.30;;;;;;5050485;28;20493;-78
2021/01/24 10:09:18;;;;;;;0.85;0.45;;;2.80;91.30;;;;;;5050108;28;20163;-78
2021/01/24 10:11:44;;;;;;;0.90;0.60;;;2.90;91.30;;;;;;5034434;28;20439;-79
2021/01/24 10:14:10;;;;;;;0.30;0.30;;;2.90;91.20;;;;;;5051211;28;20083;-79
2021/01/24 10:16:36;;;;;;;0.88;0.40;;;3.00;91.20;;;;;;5051879;28;20107;-79
2021/01/24 10:19:01;;;;;;;1.00;0.50;;;3.20;91.20;;;;;;5036126;28;20160;-80
2021/01/24 10:21:27;;;;;;;0.57;0.40;;;3.10;91.10;;;;;;5035650;28;20083;-80
2021/01/24 10:23:53;;;;;;;1.85;0.50;;;3.20;91.10;;;;;;5033849;28;20161;-79
2021/01/24 10:26:19;;;;;;;1.00;0.32;;;3.30;91.10;;;;;;5051259;28;20059;-75
2021/01/24 10:28:44;;;;;;;1.42;0.50;;;3.30;91.00;;;;;;5050773;28;20141;-81
2021/01/24 10:31:10;;;;;;;1.30;0.60;;;3.40;91.00;;;;;;5052478;28;20052;-81
2021/01/24 10:33:36;;;;;;;1.15;0.77;;;3.40;90.90;;;;;;5113432;28;20035;-81
2021/01/24 10:36:02;;;;;;;1.63;0.45;;;3.50;90.90;;;;;;5114737;28;20046;-77
2021/01/24 10:38:28;;;;;;;0.82;0.60;;;3.60;90.90;;;;;;5101095;28;20059;-79
2021/01/24 10:40:53;;;;;;;0.25;0.25;;;3.70;90.80;;;;;;5095801;28;20172;-79
2021/01/24 10:43:19;;;;;;;1.00;0.50;;;3.80;90.80;;;;;;5132271;28;20039;-75
2021/01/24 10:45:45;;;;;;;1.65;0.55;;;3.80;91.00;;;;;;5137025;28;20043;-77
2021/01/24 10:48:11;;;;;;;0.60;0.38;;;3.80;90.70;;;;;;5133081;27;20035;-76
2021/01/24 10:50:37;;;;;;;1.73;0.57;;;3.90;90.70;;;;;;5136105;28;20038;-77
2021/01/24 10:53:04;;;;;;;0.47;0.30;;;4.00;90.60;;;;;;5118436;28;20083;-75
2021/01/24 10:55:33;;;;;;;0.30;0.30;;;4.00;90.60;;;;;;5139260;28;20045;-80
2021/01/24 10:58:00;;;;;;;0.98;0.70;;;4.10;90.60;;;;;;5072294;28;20166;-76
2021/01/24 11:00:27;;;;;;;0.85;0.40;;;4.10;90.60;;;;;;5056224;28;20053;-75
2021/01/24 11:02:53;;;;;;;0.93;0.20;;;4.10;90.50;;;;;;5072927;28;20060;-75
2021/01/24 11:05:18;;;;;;;0.57;0.32;;;4.10;90.70;;;;;;5072486;28;20037;-75
2021/01/24 11:07:44;;;;;;;0.55;0.30;;;4.20;90.60;;;;;;5055443;28;20040;-76
2021/01/24 11:10:11;;;;;;;0.28;0.20;;;4.20;90.60;;;;;;5072290;28;20228;-75
2021/01/24 11:12:36;;;;;;;0.30;0.30;;;4.20;90.60;;;;;;5072561;28;20068;-76
2021/01/24 11:15:03;;;;;;;0.90;0.32;;;4.20;90.60;;;;;;5072817;28;20528;-76
2021/01/24 11:17:30;;;;;;;1.77;0.30;;;4.40;90.60;;;;;;5072740;28;20496;-76
2021/01/24 11:19:56;;;;;;;0.47;0.20;;;4.50;90.60;;;;;;5072286;28;20055;-76
2021/01/24 11:22:22;;;;;;;0.55;0.35;;;4.60;90.50;;;;;;5039191;28;20047;-76
2021/01/24 11:24:48;;;;;;;0.32;0.30;;;4.60;90.40;;;;;;5072739;28;20151;-76
2021/01/24 11:27:14;;;;;;;1.80;0.40;;;4.70;90.40;;;;;;5072213;28;20051;-75
2021/01/24 11:29:41;;;;;;;0.63;0.40;;;4.70;90.30;;;;;;5122992;28;20043;-76
2021/01/24 11:32:09;;;;;;;1.48;0.50;;;4.70;90.30;;;;;;5135868;28;20095;-76
2021/01/24 11:34:36;;;;;;;1.30;0.30;;;4.80;90.30;;;;;;5116898;28;20043;-76
2021/01/24 11:37:02;;;;;;;0.50;0.38;;;4.80;90.30;;;;;;5135145;28;20053;-75
2021/01/24 11:39:28;;;;;;;0.50;0.35;;;4.90;90.30;;;;;;5134996;28;20121;-76
2021/01/24 11:41:54;;;;;;;0.30;0.30;;;5.00;90.30;;;;;;5134911;28;20122;-76
2021/01/24 11:44:20;;;;;;;2.10;0.65;;;5.10;90.20;;;;;;5134977;28;20046;-76
2021/01/24 11:46:46;;;;;;;1.08;0.40;;;5.10;90.10;;;;;;5134887;28;20562;-76
2021/01/24 11:49:12;;;;;;;1.13;0.52;;;5.10;90.10;;;;;;5134998;28;20122;-75
2021/01/24 11:51:37;;;;;;;1.10;0.35;;;5.20;90.10;;;;;;5117263;28;20035;-76
2021/01/24 11:54:04;;;;;;;0.77;0.40;;;5.20;90.00;;;;;;5139850;28;20053;-77
2021/01/24 11:56:29;;;;;;;0.68;0.50;;;5.40;90.00;;;;;;5132295;28;20469;-75
2021/01/24 11:58:55;;;;;;;0.40;0.40;;;5.30;90.00;;;;;;5119407;28;20039;-76
2021/01/24 12:01:21;;;;;;;1.65;0.57;;;5.40;89.90;;;;;;5116328;28;20050;-76
2021/01/24 12:03:46;;;;;;;0.45;0.40;;;5.40;89.70;;;;;;5116525;28;20039;-76
2021/01/24 12:06:12;;;;;;;0.43;0.38;;;5.40;89.80;;;;;;5134940;28;20037;-76
2021/01/24 12:08:38;;;;;;;1.10;0.50;;;5.50;89.90;;;;;;5116862;28;20076;-76
2021/01/24 12:11:03;;;;;;;0.70;0.40;;;5.50;89.80;;;;;;5135123;28;20039;-76
2021/01/24 12:13:29;;;;;;;1.67;0.57;;;5.60;89.80;;;;;;5114458;28;20039;-76
2021/01/24 12:15:55;;;;;;;1.25;0.50;;;5.80;89.80;;;;;;5141266;28;20046;-75
2021/01/24 12:18:22;;;;;;;0.93;0.65;;;6.00;89.50;;;;;;5143095;28;20111;-75
2021/01/24 12:20:48;;;;;;;0.60;0.60;;;6.10;89.00;;;;;;5144073;28;20073;-75
2021/01/24 12:23:14;;;;;;;2.85;0.70;;;6.20;88.80;;;;;;5146749;28;20047;-75
2021/01/24 12:25:40;;;;;;;0.80;0.60;;;6.30;88.60;;;;;;5125807;28;20053;-75
2021/01/24 12:28:05;;;;;;;2.65;0.90;;;6.20;88.30;;;;;;5143698;28;20367;-75
2021/01/24 12:30:31;;;;;;;1.60;0.80;;;6.00;88.20;;;;;;5143986;28;20065;-75
2021/01/24 12:32:57;;;;;;;1.15;0.63;;;6.10;88.60;;;;;;5143265;28;20143;-74
2021/01/24 12:35:23;;;;;;;1.77;0.80;;;6.00;88.70;;;;;;5141707;28;20070;-74
2021/01/24 12:37:48;;;;;;;0.90;0.63;;;6.00;88.70;;;;;;5139987;28;20066;-74
2021/01/24 12:40:14;;;;;;;1.52;0.70;;;6.00;88.80;;;;;;5140795;28;20047;-74
2021/01/24 12:42:40;;;;;;;2.97;0.90;;;5.90;88.70;;;;;;5140326;28;20077;-74
2021/01/24 12:45:07;;;;;;;1.35;0.80;;;5.90;88.90;;;;;;5140626;28;20035;-74
2021/01/24 12:47:33;;;;;;;1.63;0.98;;;5.90;88.90;;;;;;5138107;28;20625;-74
2021/01/24 12:49:58;;;;;;;1.15;0.77;;;5.90;89.00;;;;;;5121146;28;20043;-75
2021/01/24 12:52:24;;;;;;;2.22;0.90;;;6.10;89.00;;;;;;5138595;28;20046;-78
2021/01/24 12:54:52;;;;;;;2.30;0.88;;;6.20;88.60;;;;;;5122125;28;20070;-78
2021/01/24 12:57:20;;;;;;;1.77;0.90;;;6.30;88.40;;;;;;5038452;28;20064;-79
2021/01/24 12:59:48;;;;;;;2.75;1.20;;;6.30;88.00;;;;;;4985540;28;20482;-80